Hauptseite
METAR-TAF:

METAR-TAF

Flughäfen :

Ingolstadt, Deutschland

Fliegerhorst Ingolstadt/Manching

Breite: 48-43N, Länge: 011-32E, Höhe: 367 m

Beobachtung

Neuester Wetterbericht von vor 20 Minuten, um 03:20 UTC
Wind 4 kt aus Südost
Temperatur 2°C
Luftfeuchtigkeit 100%
Luftdruck 988 hPa

METAR: ETSI 110320Z AUTO 14004KT //// // ////// 02/02 Q0988 ///

Zeit: 04:40 (03:40 UTC)


TAF: fehlend

Wetterbeobachtungen und Prognosen von mehr als 4000 Flughäfen (METAR und TAF Bericht).

Die verfügbaren Stationen werden durch gelbe und rote Markierungen auf der Karte dargestellt.

Führen Sie die Maus auf sie, um den Namen der Station zu sehen.

Darauf klicken, um die Beobachtung von Wetterbeobachtungen und Prognosen zu sehen.

Um die Karte zu ändern : klicken Sie auf den grünen Tasten mit einem schwarzen Kreuz Zum Vergrößern, auf den grünen Button mit einem Gedankenstrich zu verkleinern, oder auf die grünen Pfeile für benachbarte Karten.


METAR-TAF: